sensor_id;sensor_type;location;lat;lon;timestamp;P1;durP1;ratioP1;P2;durP2;ratioP2
27013;SDS011;14556;52.222;4.510;2023-02-07T00:02:16;15.30;;;4.03;;
27013;SDS011;14556;52.222;4.510;2023-02-07T00:04:43;16.87;;;5.20;;
27013;SDS011;14556;52.222;4.510;2023-02-07T00:07:10;8.13;;;4.43;;
27013;SDS011;14556;52.222;4.510;2023-02-07T00:09:36;10.77;;;4.13;;
27013;SDS011;14556;52.222;4.510;2023-02-07T00:12:03;9.63;;;4.27;;
27013;SDS011;14556;52.222;4.510;2023-02-07T00:14:29;12.87;;;4.30;;
27013;SDS011;14556;52.222;4.510;2023-02-07T00:16:56;10.03;;;4.50;;
27013;SDS011;14556;52.222;4.510;2023-02-07T00:19:22;11.33;;;4.27;;
27013;SDS011;14556;52.222;4.510;2023-02-07T00:21:48;16.50;;;4.53;;
27013;SDS011;14556;52.222;4.510;2023-02-07T00:24:15;10.10;;;4.17;;
27013;SDS011;14556;52.222;4.510;2023-02-07T00:26:41;14.80;;;4.73;;
27013;SDS011;14556;52.222;4.510;2023-02-07T00:29:09;10.10;;;3.97;;
27013;SDS011;14556;52.222;4.510;2023-02-07T00:31:35;14.03;;;4.97;;
27013;SDS011;14556;52.222;4.510;2023-02-07T00:34:02;16.20;;;5.00;;
27013;SDS011;14556;52.222;4.510;2023-02-07T00:36:30;13.10;;;4.07;;
27013;SDS011;14556;52.222;4.510;2023-02-07T00:38:57;11.40;;;4.73;;
27013;SDS011;14556;52.222;4.510;2023-02-07T00:41:24;10.37;;;4.30;;
27013;SDS011;14556;52.222;4.510;2023-02-07T00:43:50;12.37;;;3.97;;
27013;SDS011;14556;52.222;4.510;2023-02-07T00:46:17;11.67;;;3.93;;
27013;SDS011;14556;52.222;4.510;2023-02-07T00:48:44;13.03;;;4.33;;
27013;SDS011;14556;52.222;4.510;2023-02-07T00:51:11;15.37;;;4.53;;
27013;SDS011;14556;52.222;4.510;2023-02-07T00:53:39;4.67;;;3.27;;
27013;SDS011;14556;52.222;4.510;2023-02-07T00:56:05;13.43;;;3.67;;
27013;SDS011;14556;52.222;4.510;2023-02-07T00:58:32;8.40;;;3.83;;
27013;SDS011;14556;52.222;4.510;2023-02-07T01:00:58;6.77;;;3.20;;
27013;SDS011;14556;52.222;4.510;2023-02-07T01:03:25;14.60;;;3.90;;
27013;SDS011;14556;52.222;4.510;2023-02-07T01:05:51;11.80;;;4.00;;
27013;SDS011;14556;52.222;4.510;2023-02-07T01:08:18;9.97;;;3.80;;
27013;SDS011;14556;52.222;4.510;2023-02-07T01:10:44;10.23;;;3.53;;
27013;SDS011;14556;52.222;4.510;2023-02-07T01:13:11;12.70;;;3.93;;
27013;SDS011;14556;52.222;4.510;2023-02-07T01:15:38;8.13;;;3.93;;
27013;SDS011;14556;52.222;4.510;2023-02-07T01:18:05;12.27;;;4.53;;
27013;SDS011;14556;52.222;4.510;2023-02-07T01:20:32;8.43;;;3.90;;
27013;SDS011;14556;52.222;4.510;2023-02-07T01:22:59;13.10;;;3.77;;
27013;SDS011;14556;52.222;4.510;2023-02-07T01:25:25;12.03;;;4.30;;
27013;SDS011;14556;52.222;4.510;2023-02-07T01:27:52;12.70;;;3.77;;
27013;SDS011;14556;52.222;4.510;2023-02-07T01:30:18;7.43;;;3.77;;
27013;SDS011;14556;52.222;4.510;2023-02-07T01:32:45;12.60;;;4.07;;
27013;SDS011;14556;52.222;4.510;2023-02-07T01:35:11;10.50;;;3.80;;
27013;SDS011;14556;52.222;4.510;2023-02-07T01:37:37;11.50;;;3.93;;
27013;SDS011;14556;52.222;4.510;2023-02-07T01:40:04;8.07;;;3.60;;
27013;SDS011;14556;52.222;4.510;2023-02-07T01:42:30;9.80;;;4.00;;
27013;SDS011;14556;52.222;4.510;2023-02-07T01:45:01;9.53;;;3.50;;
27013;SDS011;14556;52.222;4.510;2023-02-07T01:47:28;11.60;;;3.97;;
27013;SDS011;14556;52.222;4.510;2023-02-07T01:49:55;14.20;;;4.07;;
27013;SDS011;14556;52.222;4.510;2023-02-07T01:52:32;8.23;;;3.57;;
27013;SDS011;14556;52.222;4.510;2023-02-07T01:55:01;14.37;;;4.20;;
27013;SDS011;14556;52.222;4.510;2023-02-07T01:57:28;8.87;;;4.07;;
27013;SDS011;14556;52.222;4.510;2023-02-07T01:59:55;8.93;;;3.60;;
27013;SDS011;14556;52.222;4.510;2023-02-07T02:02:22;11.00;;;3.60;;
27013;SDS011;14556;52.222;4.510;2023-02-07T02:04:50;12.37;;;3.77;;
27013;SDS011;14556;52.222;4.510;2023-02-07T02:07:17;9.40;;;3.07;;
27013;SDS011;14556;52.222;4.510;2023-02-07T02:09:44;19.60;;;4.17;;
27013;SDS011;14556;52.222;4.510;2023-02-07T02:30:06;14.80;;;4.07;;
27013;SDS011;14556;52.222;4.510;2023-02-07T02:32:59;15.53;;;4.30;;
27013;SDS011;14556;52.222;4.510;2023-02-07T02:35:31;10.47;;;4.00;;
27013;SDS011;14556;52.222;4.510;2023-02-07T02:45:56;12.83;;;4.60;;
27013;SDS011;14556;52.222;4.510;2023-02-07T02:48:23;11.17;;;4.47;;
27013;SDS011;14556;52.222;4.510;2023-02-07T02:50:51;12.70;;;4.47;;
27013;SDS011;14556;52.222;4.510;2023-02-07T02:53:18;15.73;;;5.03;;
27013;SDS011;14556;52.222;4.510;2023-02-07T03:00:49;13.33;;;4.63;;
27013;SDS011;14556;52.222;4.510;2023-02-07T03:05:52;11.43;;;4.30;;
27013;SDS011;14556;52.222;4.510;2023-02-07T03:11:06;15.67;;;5.10;;
27013;SDS011;14556;52.222;4.510;2023-02-07T03:13:36;18.33;;;5.63;;
27013;SDS011;14556;52.222;4.510;2023-02-07T03:16:08;10.93;;;4.50;;
27013;SDS011;14556;52.222;4.510;2023-02-07T03:21:15;11.40;;;5.37;;
27013;SDS011;14556;52.222;4.510;2023-02-07T03:23:43;12.53;;;4.70;;
27013;SDS011;14556;52.222;4.510;2023-02-07T03:26:10;12.63;;;5.10;;
27013;SDS011;14556;52.222;4.510;2023-02-07T03:28:37;13.73;;;5.33;;
27013;SDS011;14556;52.222;4.510;2023-02-07T03:31:04;14.77;;;5.33;;
27013;SDS011;14556;52.222;4.510;2023-02-07T03:33:32;8.77;;;4.93;;
27013;SDS011;14556;52.222;4.510;2023-02-07T03:36:16;11.73;;;4.57;;
27013;SDS011;14556;52.222;4.510;2023-02-07T03:38:44;9.87;;;4.77;;
27013;SDS011;14556;52.222;4.510;2023-02-07T03:41:15;13.93;;;4.37;;
27013;SDS011;14556;52.222;4.510;2023-02-07T03:43:43;9.87;;;5.10;;
27013;SDS011;14556;52.222;4.510;2023-02-07T03:46:09;9.87;;;4.87;;
27013;SDS011;14556;52.222;4.510;2023-02-07T03:48:36;14.97;;;5.17;;
27013;SDS011;14556;52.222;4.510;2023-02-07T03:51:03;12.20;;;4.97;;
27013;SDS011;14556;52.222;4.510;2023-02-07T03:53:29;11.20;;;5.27;;
27013;SDS011;14556;52.222;4.510;2023-02-07T03:55:55;14.80;;;4.60;;
27013;SDS011;14556;52.222;4.510;2023-02-07T03:58:22;11.73;;;4.63;;
27013;SDS011;14556;52.222;4.510;2023-02-07T04:00:48;8.27;;;4.00;;
27013;SDS011;14556;52.222;4.510;2023-02-07T04:03:15;7.97;;;4.23;;
27013;SDS011;14556;52.222;4.510;2023-02-07T04:05:42;7.10;;;3.47;;
27013;SDS011;14556;52.222;4.510;2023-02-07T04:08:09;6.80;;;4.40;;
27013;SDS011;14556;52.222;4.510;2023-02-07T04:10:35;10.90;;;4.07;;
27013;SDS011;14556;52.222;4.510;2023-02-07T04:13:01;12.17;;;4.07;;
27013;SDS011;14556;52.222;4.510;2023-02-07T04:15:28;10.20;;;4.63;;
27013;SDS011;14556;52.222;4.510;2023-02-07T04:17:55;10.07;;;4.07;;
27013;SDS011;14556;52.222;4.510;2023-02-07T04:20:21;9.17;;;3.90;;
27013;SDS011;14556;52.222;4.510;2023-02-07T04:22:47;10.97;;;4.57;;
27013;SDS011;14556;52.222;4.510;2023-02-07T04:25:14;12.07;;;4.03;;
27013;SDS011;14556;52.222;4.510;2023-02-07T04:27:40;9.13;;;3.73;;
27013;SDS011;14556;52.222;4.510;2023-02-07T04:30:07;7.60;;;4.40;;
27013;SDS011;14556;52.222;4.510;2023-02-07T04:32:33;12.00;;;4.67;;
27013;SDS011;14556;52.222;4.510;2023-02-07T04:35:00;7.83;;;3.70;;
27013;SDS011;14556;52.222;4.510;2023-02-07T04:37:26;9.23;;;4.27;;
27013;SDS011;14556;52.222;4.510;2023-02-07T04:39:52;13.03;;;4.80;;
27013;SDS011;14556;52.222;4.510;2023-02-07T04:42:19;9.90;;;4.83;;
27013;SDS011;14556;52.222;4.510;2023-02-07T04:44:45;13.03;;;5.27;;
27013;SDS011;14556;52.222;4.510;2023-02-07T04:47:11;7.80;;;5.13;;
27013;SDS011;14556;52.222;4.510;2023-02-07T04:49:38;8.50;;;5.60;;
27013;SDS011;14556;52.222;4.510;2023-02-07T04:52:04;16.10;;;5.57;;
27013;SDS011;14556;52.222;4.510;2023-02-07T04:54:30;8.37;;;5.40;;
27013;SDS011;14556;52.222;4.510;2023-02-07T04:56:57;12.27;;;6.40;;
27013;SDS011;14556;52.222;4.510;2023-02-07T04:59:23;12.17;;;5.87;;
27013;SDS011;14556;52.222;4.510;2023-02-07T05:01:50;14.77;;;6.83;;
27013;SDS011;14556;52.222;4.510;2023-02-07T05:04:16;16.10;;;5.93;;
27013;SDS011;14556;52.222;4.510;2023-02-07T05:06:42;10.47;;;6.13;;
27013;SDS011;14556;52.222;4.510;2023-02-07T05:09:10;9.83;;;5.37;;
27013;SDS011;14556;52.222;4.510;2023-02-07T05:11:36;9.70;;;5.63;;
27013;SDS011;14556;52.222;4.510;2023-02-07T05:14:02;13.60;;;5.87;;
27013;SDS011;14556;52.222;4.510;2023-02-07T05:16:29;18.60;;;5.30;;
27013;SDS011;14556;52.222;4.510;2023-02-07T05:18:55;12.43;;;5.87;;
27013;SDS011;14556;52.222;4.510;2023-02-07T05:21:22;17.50;;;6.43;;
27013;SDS011;14556;52.222;4.510;2023-02-07T05:23:48;11.87;;;6.07;;
27013;SDS011;14556;52.222;4.510;2023-02-07T05:26:14;12.20;;;5.93;;
27013;SDS011;14556;52.222;4.510;2023-02-07T05:28:42;11.00;;;6.40;;
27013;SDS011;14556;52.222;4.510;2023-02-07T05:31:08;13.70;;;6.37;;
27013;SDS011;14556;52.222;4.510;2023-02-07T05:33:35;12.17;;;6.17;;
27013;SDS011;14556;52.222;4.510;2023-02-07T05:36:01;11.20;;;6.97;;
27013;SDS011;14556;52.222;4.510;2023-02-07T05:38:28;12.07;;;6.73;;
27013;SDS011;14556;52.222;4.510;2023-02-07T05:40:55;13.23;;;6.53;;
27013;SDS011;14556;52.222;4.510;2023-02-07T05:43:21;12.07;;;7.07;;
27013;SDS011;14556;52.222;4.510;2023-02-07T05:45:48;11.57;;;7.57;;
27013;SDS011;14556;52.222;4.510;2023-02-07T05:48:14;14.07;;;7.93;;
27013;SDS011;14556;52.222;4.510;2023-02-07T05:50:40;14.33;;;7.53;;
27013;SDS011;14556;52.222;4.510;2023-02-07T05:53:07;12.20;;;7.53;;
27013;SDS011;14556;52.222;4.510;2023-02-07T05:55:33;12.80;;;7.53;;
27013;SDS011;14556;52.222;4.510;2023-02-07T05:57:59;11.40;;;6.73;;
27013;SDS011;14556;52.222;4.510;2023-02-07T06:00:26;16.20;;;7.37;;
27013;SDS011;14556;52.222;4.510;2023-02-07T06:02:52;13.70;;;7.83;;
27013;SDS011;14556;52.222;4.510;2023-02-07T06:05:19;12.57;;;6.90;;
27013;SDS011;14556;52.222;4.510;2023-02-07T06:07:45;14.27;;;7.47;;
27013;SDS011;14556;52.222;4.510;2023-02-07T06:10:12;15.50;;;8.07;;
27013;SDS011;14556;52.222;4.510;2023-02-07T06:12:39;14.73;;;8.00;;
27013;SDS011;14556;52.222;4.510;2023-02-07T06:15:05;13.17;;;8.07;;
27013;SDS011;14556;52.222;4.510;2023-02-07T06:17:31;15.23;;;8.10;;
27013;SDS011;14556;52.222;4.510;2023-02-07T06:19:58;16.87;;;8.20;;
27013;SDS011;14556;52.222;4.510;2023-02-07T06:22:24;14.63;;;7.80;;
27013;SDS011;14556;52.222;4.510;2023-02-07T06:24:51;14.77;;;7.30;;
27013;SDS011;14556;52.222;4.510;2023-02-07T06:27:17;17.53;;;8.37;;
27013;SDS011;14556;52.222;4.510;2023-02-07T06:29:43;14.20;;;7.40;;
27013;SDS011;14556;52.222;4.510;2023-02-07T06:32:10;15.00;;;7.87;;
27013;SDS011;14556;52.222;4.510;2023-02-07T06:34:36;25.67;;;9.53;;
27013;SDS011;14556;52.222;4.510;2023-02-07T06:37:02;20.70;;;8.70;;
27013;SDS011;14556;52.222;4.510;2023-02-07T06:39:29;17.13;;;8.27;;
27013;SDS011;14556;52.222;4.510;2023-02-07T06:41:55;17.77;;;8.13;;
27013;SDS011;14556;52.222;4.510;2023-02-07T06:44:21;16.67;;;8.33;;
27013;SDS011;14556;52.222;4.510;2023-02-07T06:46:48;14.17;;;8.33;;
27013;SDS011;14556;52.222;4.510;2023-02-07T06:49:14;18.90;;;7.63;;
27013;SDS011;14556;52.222;4.510;2023-02-07T06:51:41;16.00;;;8.53;;
27013;SDS011;14556;52.222;4.510;2023-02-07T06:54:07;17.17;;;8.03;;
27013;SDS011;14556;52.222;4.510;2023-02-07T06:56:35;16.53;;;8.17;;
27013;SDS011;14556;52.222;4.510;2023-02-07T06:59:01;18.20;;;9.33;;
27013;SDS011;14556;52.222;4.510;2023-02-07T07:01:28;15.17;;;8.30;;
27013;SDS011;14556;52.222;4.510;2023-02-07T07:03:54;18.00;;;9.20;;
27013;SDS011;14556;52.222;4.510;2023-02-07T07:06:20;15.63;;;8.80;;
27013;SDS011;14556;52.222;4.510;2023-02-07T07:08:47;24.07;;;9.50;;
27013;SDS011;14556;52.222;4.510;2023-02-07T07:11:14;19.87;;;9.60;;
27013;SDS011;14556;52.222;4.510;2023-02-07T07:13:41;23.50;;;9.00;;
27013;SDS011;14556;52.222;4.510;2023-02-07T07:16:07;22.13;;;10.03;;
27013;SDS011;14556;52.222;4.510;2023-02-07T07:18:33;19.20;;;9.83;;
27013;SDS011;14556;52.222;4.510;2023-02-07T07:21:02;19.73;;;10.77;;
27013;SDS011;14556;52.222;4.510;2023-02-07T07:23:29;23.13;;;9.83;;
27013;SDS011;14556;52.222;4.510;2023-02-07T07:25:55;23.53;;;9.70;;
27013;SDS011;14556;52.222;4.510;2023-02-07T07:28:22;25.93;;;11.33;;
27013;SDS011;14556;52.222;4.510;2023-02-07T07:30:48;22.13;;;9.97;;
27013;SDS011;14556;52.222;4.510;2023-02-07T07:33:14;19.37;;;9.57;;
27013;SDS011;14556;52.222;4.510;2023-02-07T07:35:41;21.00;;;9.53;;
27013;SDS011;14556;52.222;4.510;2023-02-07T07:38:07;19.77;;;10.27;;
27013;SDS011;14556;52.222;4.510;2023-02-07T07:40:34;23.93;;;9.83;;
27013;SDS011;14556;52.222;4.510;2023-02-07T07:43:00;22.93;;;9.97;;
27013;SDS011;14556;52.222;4.510;2023-02-07T07:45:27;22.10;;;9.90;;
27013;SDS011;14556;52.222;4.510;2023-02-07T07:47:53;19.83;;;9.60;;
27013;SDS011;14556;52.222;4.510;2023-02-07T07:50:19;21.03;;;11.17;;
27013;SDS011;14556;52.222;4.510;2023-02-07T07:52:46;25.23;;;10.73;;
27013;SDS011;14556;52.222;4.510;2023-02-07T07:55:12;25.67;;;11.70;;
27013;SDS011;14556;52.222;4.510;2023-02-07T07:57:40;19.47;;;10.23;;
27013;SDS011;14556;52.222;4.510;2023-02-07T08:00:07;23.77;;;10.83;;
27013;SDS011;14556;52.222;4.510;2023-02-07T08:02:33;19.97;;;10.87;;
27013;SDS011;14556;52.222;4.510;2023-02-07T08:04:59;21.97;;;10.97;;
27013;SDS011;14556;52.222;4.510;2023-02-07T08:07:26;22.93;;;11.33;;
27013;SDS011;14556;52.222;4.510;2023-02-07T08:09:52;25.30;;;11.13;;
27013;SDS011;14556;52.222;4.510;2023-02-07T08:12:18;31.37;;;11.57;;
27013;SDS011;14556;52.222;4.510;2023-02-07T08:14:45;27.83;;;12.23;;
27013;SDS011;14556;52.222;4.510;2023-02-07T08:17:11;34.63;;;14.57;;
27013;SDS011;14556;52.222;4.510;2023-02-07T08:19:37;38.03;;;14.00;;
27013;SDS011;14556;52.222;4.510;2023-02-07T08:22:04;36.67;;;13.03;;
27013;SDS011;14556;52.222;4.510;2023-02-07T08:24:30;28.00;;;12.10;;
27013;SDS011;14556;52.222;4.510;2023-02-07T08:26:56;26.10;;;13.27;;
27013;SDS011;14556;52.222;4.510;2023-02-07T08:29:23;36.57;;;13.30;;
27013;SDS011;14556;52.222;4.510;2023-02-07T08:31:50;36.93;;;13.40;;
27013;SDS011;14556;52.222;4.510;2023-02-07T08:34:17;30.60;;;14.17;;
27013;SDS011;14556;52.222;4.510;2023-02-07T08:36:44;28.73;;;12.17;;
27013;SDS011;14556;52.222;4.510;2023-02-07T08:39:10;31.03;;;13.33;;
27013;SDS011;14556;52.222;4.510;2023-02-07T08:41:36;28.27;;;14.70;;
27013;SDS011;14556;52.222;4.510;2023-02-07T08:44:03;36.10;;;16.50;;
27013;SDS011;14556;52.222;4.510;2023-02-07T08:46:29;29.17;;;13.97;;
27013;SDS011;14556;52.222;4.510;2023-02-07T08:48:55;27.23;;;13.60;;
27013;SDS011;14556;52.222;4.510;2023-02-07T08:51:22;33.53;;;14.97;;
27013;SDS011;14556;52.222;4.510;2023-02-07T08:53:48;33.37;;;15.00;;
27013;SDS011;14556;52.222;4.510;2023-02-07T08:56:14;39.60;;;15.10;;
27013;SDS011;14556;52.222;4.510;2023-02-07T08:58:41;34.40;;;14.83;;
27013;SDS011;14556;52.222;4.510;2023-02-07T09:01:07;39.20;;;14.90;;
27013;SDS011;14556;52.222;4.510;2023-02-07T09:03:37;32.80;;;14.07;;
27013;SDS011;14556;52.222;4.510;2023-02-07T09:06:03;37.37;;;13.10;;
27013;SDS011;14556;52.222;4.510;2023-02-07T09:08:30;34.87;;;13.80;;
27013;SDS011;14556;52.222;4.510;2023-02-07T09:10:57;33.60;;;13.73;;
27013;SDS011;14556;52.222;4.510;2023-02-07T09:13:23;37.40;;;13.90;;
27013;SDS011;14556;52.222;4.510;2023-02-07T09:15:53;32.17;;;14.33;;
27013;SDS011;14556;52.222;4.510;2023-02-07T09:18:20;34.97;;;14.70;;
27013;SDS011;14556;52.222;4.510;2023-02-07T09:20:47;37.07;;;14.33;;
27013;SDS011;14556;52.222;4.510;2023-02-07T09:23:13;35.40;;;15.07;;
27013;SDS011;14556;52.222;4.510;2023-02-07T09:25:43;30.00;;;13.30;;
27013;SDS011;14556;52.222;4.510;2023-02-07T09:28:09;30.53;;;14.13;;
27013;SDS011;14556;52.222;4.510;2023-02-07T09:30:36;33.93;;;14.60;;
27013;SDS011;14556;52.222;4.510;2023-02-07T09:33:05;24.43;;;13.00;;
27013;SDS011;14556;52.222;4.510;2023-02-07T09:35:34;28.83;;;13.07;;
27013;SDS011;14556;52.222;4.510;2023-02-07T09:38:01;31.83;;;14.43;;
27013;SDS011;14556;52.222;4.510;2023-02-07T09:40:28;33.63;;;13.37;;
27013;SDS011;14556;52.222;4.510;2023-02-07T09:42:57;30.67;;;14.30;;
27013;SDS011;14556;52.222;4.510;2023-02-07T09:45:28;29.30;;;14.67;;
27013;SDS011;14556;52.222;4.510;2023-02-07T09:48:03;31.60;;;14.20;;
27013;SDS011;14556;52.222;4.510;2023-02-07T09:50:33;28.37;;;13.73;;
27013;SDS011;14556;52.222;4.510;2023-02-07T09:53:10;27.47;;;12.83;;
27013;SDS011;14556;52.222;4.510;2023-02-07T09:55:51;30.10;;;14.50;;
27013;SDS011;14556;52.222;4.510;2023-02-07T09:58:29;26.57;;;13.60;;
27013;SDS011;14556;52.222;4.510;2023-02-07T10:01:05;31.53;;;13.83;;
27013;SDS011;14556;52.222;4.510;2023-02-07T10:03:35;30.93;;;12.97;;
27013;SDS011;14556;52.222;4.510;2023-02-07T10:06:03;29.57;;;13.30;;
27013;SDS011;14556;52.222;4.510;2023-02-07T10:08:45;30.90;;;12.43;;
27013;SDS011;14556;52.222;4.510;2023-02-07T10:11:19;23.70;;;13.53;;
27013;SDS011;14556;52.222;4.510;2023-02-07T10:29:06;28.97;;;13.23;;
27013;SDS011;14556;52.222;4.510;2023-02-07T10:31:36;30.57;;;13.83;;
27013;SDS011;14556;52.222;4.510;2023-02-07T10:34:09;29.90;;;13.30;;
27013;SDS011;14556;52.222;4.510;2023-02-07T10:36:36;33.27;;;14.20;;
27013;SDS011;14556;52.222;4.510;2023-02-07T10:39:17;29.40;;;13.47;;
27013;SDS011;14556;52.222;4.510;2023-02-07T10:41:45;24.33;;;12.97;;
27013;SDS011;14556;52.222;4.510;2023-02-07T10:44:12;26.73;;;12.87;;
27013;SDS011;14556;52.222;4.510;2023-02-07T10:46:40;29.23;;;14.20;;
27013;SDS011;14556;52.222;4.510;2023-02-07T10:49:21;32.30;;;15.27;;
27013;SDS011;14556;52.222;4.510;2023-02-07T10:51:53;28.00;;;14.80;;
27013;SDS011;14556;52.222;4.510;2023-02-07T10:54:20;32.10;;;14.87;;
27013;SDS011;14556;52.222;4.510;2023-02-07T10:56:50;31.07;;;14.73;;
27013;SDS011;14556;52.222;4.510;2023-02-07T10:59:28;26.93;;;13.30;;
27013;SDS011;14556;52.222;4.510;2023-02-07T11:01:56;33.90;;;14.73;;
27013;SDS011;14556;52.222;4.510;2023-02-07T11:04:29;29.83;;;14.70;;
27013;SDS011;14556;52.222;4.510;2023-02-07T11:06:59;26.73;;;14.27;;
27013;SDS011;14556;52.222;4.510;2023-02-07T11:09:26;28.77;;;14.03;;
27013;SDS011;14556;52.222;4.510;2023-02-07T11:11:52;30.97;;;15.17;;
27013;SDS011;14556;52.222;4.510;2023-02-07T11:14:20;43.27;;;18.10;;
27013;SDS011;14556;52.222;4.510;2023-02-07T11:16:52;35.20;;;16.30;;
27013;SDS011;14556;52.222;4.510;2023-02-07T11:19:21;32.90;;;15.77;;
27013;SDS011;14556;52.222;4.510;2023-02-07T11:21:49;36.47;;;16.67;;
27013;SDS011;14556;52.222;4.510;2023-02-07T11:24:18;31.90;;;16.13;;
27013;SDS011;14556;52.222;4.510;2023-02-07T11:29:19;33.57;;;15.60;;
27013;SDS011;14556;52.222;4.510;2023-02-07T11:31:46;36.87;;;15.73;;
27013;SDS011;14556;52.222;4.510;2023-02-07T11:37:22;32.43;;;16.43;;
27013;SDS011;14556;52.222;4.510;2023-02-07T11:39:46;32.80;;;14.93;;
27013;SDS011;14556;52.222;4.510;2023-02-07T11:42:16;23.70;;;13.07;;
27013;SDS011;14556;52.222;4.510;2023-02-07T11:44:43;32.23;;;15.60;;
27013;SDS011;14556;52.222;4.510;2023-02-07T11:47:25;32.10;;;15.90;;
27013;SDS011;14556;52.222;4.510;2023-02-07T11:49:55;29.67;;;15.10;;
27013;SDS011;14556;52.222;4.510;2023-02-07T11:52:23;31.87;;;15.77;;
27013;SDS011;14556;52.222;4.510;2023-02-07T11:54:52;27.73;;;13.77;;
27013;SDS011;14556;52.222;4.510;2023-02-07T11:57:27;32.70;;;15.23;;
27013;SDS011;14556;52.222;4.510;2023-02-07T12:02:27;31.63;;;16.07;;
27013;SDS011;14556;52.222;4.510;2023-02-07T12:05:06;34.73;;;15.67;;
27013;SDS011;14556;52.222;4.510;2023-02-07T12:07:34;37.20;;;17.27;;
27013;SDS011;14556;52.222;4.510;2023-02-07T12:10:04;36.53;;;17.03;;
27013;SDS011;14556;52.222;4.510;2023-02-07T12:12:45;39.27;;;17.17;;
27013;SDS011;14556;52.222;4.510;2023-02-07T12:15:20;35.43;;;17.30;;
27013;SDS011;14556;52.222;4.510;2023-02-07T12:17:52;38.13;;;18.13;;
27013;SDS011;14556;52.222;4.510;2023-02-07T12:20:26;36.10;;;17.80;;
27013;SDS011;14556;52.222;4.510;2023-02-07T12:22:58;33.00;;;17.20;;
27013;SDS011;14556;52.222;4.510;2023-02-07T12:25:49;36.17;;;17.73;;
27013;SDS011;14556;52.222;4.510;2023-02-07T12:31:04;31.47;;;13.47;;
27013;SDS011;14556;52.222;4.510;2023-02-07T12:34:09;26.47;;;12.17;;
27013;SDS011;14556;52.222;4.510;2023-02-07T12:36:32;23.63;;;12.17;;
27013;SDS011;14556;52.222;4.510;2023-02-07T12:39:00;28.10;;;12.87;;
27013;SDS011;14556;52.222;4.510;2023-02-07T12:41:34;26.53;;;13.73;;
27013;SDS011;14556;52.222;4.510;2023-02-07T12:46:39;21.97;;;11.03;;
27013;SDS011;14556;52.222;4.510;2023-02-07T12:49:14;22.50;;;12.17;;
27013;SDS011;14556;52.222;4.510;2023-02-07T12:54:38;25.67;;;11.77;;
27013;SDS011;14556;52.222;4.510;2023-02-07T12:57:18;23.20;;;12.10;;
27013;SDS011;14556;52.222;4.510;2023-02-07T13:02:23;20.10;;;11.93;;
27013;SDS011;14556;52.222;4.510;2023-02-07T13:04:55;24.60;;;13.10;;
27013;SDS011;14556;52.222;4.510;2023-02-07T13:10:05;25.53;;;12.00;;
27013;SDS011;14556;52.222;4.510;2023-02-07T13:12:40;24.73;;;13.27;;
27013;SDS011;14556;52.222;4.510;2023-02-07T13:15:15;23.00;;;11.80;;
27013;SDS011;14556;52.222;4.510;2023-02-07T13:22:59;24.43;;;11.93;;
27013;SDS011;14556;52.222;4.510;2023-02-07T13:25:31;20.50;;;10.33;;
27013;SDS011;14556;52.222;4.510;2023-02-07T13:27:59;22.50;;;10.83;;
27013;SDS011;14556;52.222;4.510;2023-02-07T13:30:28;20.37;;;10.97;;
27013;SDS011;14556;52.222;4.510;2023-02-07T13:32:58;19.10;;;9.93;;
27013;SDS011;14556;52.222;4.510;2023-02-07T13:35:25;21.47;;;10.70;;
27013;SDS011;14556;52.222;4.510;2023-02-07T13:38:08;19.63;;;9.93;;
27013;SDS011;14556;52.222;4.510;2023-02-07T13:40:51;19.60;;;10.63;;
27013;SDS011;14556;52.222;4.510;2023-02-07T13:43:22;19.70;;;9.37;;
27013;SDS011;14556;52.222;4.510;2023-02-07T13:46:00;25.27;;;10.13;;
27013;SDS011;14556;52.222;4.510;2023-02-07T13:48:37;16.73;;;9.67;;
27013;SDS011;14556;52.222;4.510;2023-02-07T13:51:24;19.13;;;10.37;;
27013;SDS011;14556;52.222;4.510;2023-02-07T13:56:39;17.10;;;9.50;;
27013;SDS011;14556;52.222;4.510;2023-02-07T13:59:38;20.77;;;9.47;;
27013;SDS011;14556;52.222;4.510;2023-02-07T14:02:18;17.53;;;9.10;;
27013;SDS011;14556;52.222;4.510;2023-02-07T14:07:16;20.87;;;10.50;;
27013;SDS011;14556;52.222;4.510;2023-02-07T14:09:44;16.10;;;9.07;;
27013;SDS011;14556;52.222;4.510;2023-02-07T14:15:25;19.23;;;9.87;;
27013;SDS011;14556;52.222;4.510;2023-02-07T14:23:16;16.67;;;8.77;;
27013;SDS011;14556;52.222;4.510;2023-02-07T14:25:43;13.90;;;8.63;;
27013;SDS011;14556;52.222;4.510;2023-02-07T14:33:16;12.90;;;8.00;;
27013;SDS011;14556;52.222;4.510;2023-02-07T14:38:31;14.00;;;7.87;;
27013;SDS011;14556;52.222;4.510;2023-02-07T14:41:03;16.77;;;7.77;;
27013;SDS011;14556;52.222;4.510;2023-02-07T14:43:41;13.70;;;7.03;;
27013;SDS011;14556;52.222;4.510;2023-02-07T14:46:10;11.80;;;5.90;;
27013;SDS011;14556;52.222;4.510;2023-02-07T14:48:44;11.80;;;6.27;;
27013;SDS011;14556;52.222;4.510;2023-02-07T14:51:20;12.83;;;6.97;;
27013;SDS011;14556;52.222;4.510;2023-02-07T14:53:53;9.63;;;5.60;;
27013;SDS011;14556;52.222;4.510;2023-02-07T14:56:25;10.83;;;5.60;;
27013;SDS011;14556;52.222;4.510;2023-02-07T14:58:54;9.73;;;5.47;;
27013;SDS011;14556;52.222;4.510;2023-02-07T15:01:21;11.47;;;6.10;;
27013;SDS011;14556;52.222;4.510;2023-02-07T15:04:02;11.40;;;6.00;;
27013;SDS011;14556;52.222;4.510;2023-02-07T15:06:34;7.10;;;4.70;;
27013;SDS011;14556;52.222;4.510;2023-02-07T15:09:01;10.87;;;4.97;;
27013;SDS011;14556;52.222;4.510;2023-02-07T15:11:28;8.93;;;4.47;;
27013;SDS011;14556;52.222;4.510;2023-02-07T15:13:55;8.67;;;4.77;;
27013;SDS011;14556;52.222;4.510;2023-02-07T15:16:26;8.30;;;4.27;;
27013;SDS011;14556;52.222;4.510;2023-02-07T15:18:54;9.37;;;5.07;;
27013;SDS011;14556;52.222;4.510;2023-02-07T15:26:27;9.17;;;5.07;;
27013;SDS011;14556;52.222;4.510;2023-02-07T15:28:55;6.87;;;4.90;;
27013;SDS011;14556;52.222;4.510;2023-02-07T15:31:22;7.77;;;4.80;;
27013;SDS011;14556;52.222;4.510;2023-02-07T15:33:50;8.37;;;4.63;;
27013;SDS011;14556;52.222;4.510;2023-02-07T15:36:34;8.03;;;4.33;;
27013;SDS011;14556;52.222;4.510;2023-02-07T15:39:13;9.97;;;5.53;;
27013;SDS011;14556;52.222;4.510;2023-02-07T15:41:39;7.77;;;5.63;;
27013;SDS011;14556;52.222;4.510;2023-02-07T15:44:06;8.07;;;5.03;;
27013;SDS011;14556;52.222;4.510;2023-02-07T15:54:36;10.30;;;5.90;;
27013;SDS011;14556;52.222;4.510;2023-02-07T15:57:03;12.63;;;6.60;;
27013;SDS011;14556;52.222;4.510;2023-02-07T15:59:30;11.13;;;6.70;;
27013;SDS011;14556;52.222;4.510;2023-02-07T16:01:57;14.77;;;7.20;;
27013;SDS011;14556;52.222;4.510;2023-02-07T16:04:26;16.57;;;7.50;;
27013;SDS011;14556;52.222;4.510;2023-02-07T16:06:54;9.97;;;6.13;;
27013;SDS011;14556;52.222;4.510;2023-02-07T16:09:42;13.97;;;6.33;;
27013;SDS011;14556;52.222;4.510;2023-02-07T16:14:57;10.93;;;6.40;;
27013;SDS011;14556;52.222;4.510;2023-02-07T16:17:24;13.60;;;7.40;;
27013;SDS011;14556;52.222;4.510;2023-02-07T16:19:50;16.70;;;7.23;;
27013;SDS011;14556;52.222;4.510;2023-02-07T16:22:19;14.57;;;7.67;;
27013;SDS011;14556;52.222;4.510;2023-02-07T16:24:47;15.03;;;7.60;;
27013;SDS011;14556;52.222;4.510;2023-02-07T16:27:16;11.83;;;6.97;;
27013;SDS011;14556;52.222;4.510;2023-02-07T16:29:43;13.10;;;6.90;;
27013;SDS011;14556;52.222;4.510;2023-02-07T16:32:12;26.80;;;8.30;;
27013;SDS011;14556;52.222;4.510;2023-02-07T16:34:39;14.20;;;7.93;;
27013;SDS011;14556;52.222;4.510;2023-02-07T16:37:22;12.70;;;6.87;;
27013;SDS011;14556;52.222;4.510;2023-02-07T16:39:49;14.53;;;7.93;;